Time;durP1;ratioP1;P1;durP2;ratioP2;P2;SDS_P1;SDS_P2;PMS_P1;PMS_P2;Temp;Humidity;BMP_temperature;BMP_pressure;BME280_temperature;BME280_humidity;BME280_pressure;Samples;Min_cycle;Max_cycle;Signal;HPM_P1;HPM_P2
2023/06/27 00:00:53;;;;;;;0.63;0.50;;;18.70;66.30;;;;;;5027969;28;20146;-62
2023/06/27 00:03:18;;;;;;;1.25;0.73;;;18.60;66.40;;;;;;5028713;28;20118;-63
2023/06/27 00:05:44;;;;;;;0.60;0.60;;;18.60;66.60;;;;;;5031740;28;20443;-63
2023/06/27 00:08:10;;;;;;;2.63;0.63;;;18.60;66.80;;;;;;5032757;28;20033;-64
2023/06/27 00:10:35;;;;;;;0.70;0.60;;;18.60;66.80;;;;;;5014232;28;20448;-63
2023/06/27 00:13:01;;;;;;;0.73;0.70;;;18.50;66.90;;;;;;5011687;28;20392;-64
2023/06/27 00:15:29;;;;;;;1.67;0.32;;;18.60;67.10;;;;;;5014330;28;20538;-64
2023/06/27 00:17:55;;;;;;;0.93;0.45;;;18.50;66.90;;;;;;5032101;28;20059;-64
2023/06/27 00:20:21;;;;;;;0.70;0.70;;;18.50;67.10;;;;;;5031918;28;20049;-64
2023/06/27 00:22:47;;;;;;;0.90;0.73;;;18.50;67.30;;;;;;5032390;28;20057;-64
2023/06/27 00:25:12;;;;;;;0.70;0.70;;;18.50;67.50;;;;;;5014410;28;20473;-64
2023/06/27 00:27:39;;;;;;;0.80;0.65;;;18.50;67.70;;;;;;5032095;28;20036;-64
2023/06/27 00:30:05;;;;;;;1.00;0.80;;;18.40;67.80;;;;;;5031127;28;20538;-64
2023/06/27 00:32:31;;;;;;;1.08;0.77;;;18.40;67.80;;;;;;5031382;28;20033;-64
2023/06/27 00:34:56;;;;;;;2.75;0.60;;;18.40;67.90;;;;;;5014330;28;20370;-64
2023/06/27 00:37:22;;;;;;;0.73;0.50;;;18.40;67.90;;;;;;5031941;28;20053;-64
2023/06/27 00:39:48;;;;;;;0.50;0.50;;;18.40;67.90;;;;;;5031933;28;20025;-64
2023/06/27 00:42:14;;;;;;;0.68;0.60;;;18.50;68.00;;;;;;5031906;28;20025;-64
2023/06/27 00:44:39;;;;;;;0.35;0.35;;;18.40;67.80;;;;;;5013942;28;20585;-64
2023/06/27 00:47:06;;;;;;;0.70;0.65;;;18.50;67.90;;;;;;5028868;28;20095;-64
2023/06/27 00:49:31;;;;;;;1.85;0.90;;;18.50;67.90;;;;;;5032140;28;20492;-64
2023/06/27 00:51:58;;;;;;;2.72;0.95;;;18.50;67.80;;;;;;5031156;28;20025;-64
2023/06/27 00:54:24;;;;;;;1.17;0.82;;;18.60;67.70;;;;;;5031838;28;20474;-64
2023/06/27 00:56:53;;;;;;;0.90;0.73;;;18.60;67.80;;;;;;5031619;28;20033;-63
2023/06/27 00:59:19;;;;;;;0.77;0.60;;;18.60;68.10;;;;;;5031400;28;20289;-64
2023/06/27 01:01:45;;;;;;;1.40;0.82;;;18.60;68.30;;;;;;5030878;28;20033;-64
2023/06/27 01:04:11;;;;;;;0.65;0.50;;;18.70;68.60;;;;;;5031337;28;20037;-64
2023/06/27 01:06:57;;;;;;;0.50;0.50;;;18.70;68.60;;;;;;5031701;28;20021;-64
2023/06/27 01:09:35;;;;;;;1.83;0.90;;;18.70;68.90;;;;;;5030886;28;20543;-64
2023/06/27 01:12:26;;;;;;;2.20;0.55;;;18.70;69.00;;;;;;5031095;28;20030;-64
2023/06/27 01:14:56;;;;;;;1.70;0.60;;;18.80;69.00;;;;;;5031191;28;20049;-66
2023/06/27 01:17:22;;;;;;;2.97;0.60;;;18.80;69.00;;;;;;5030493;28;20022;-64
2023/06/27 01:19:52;;;;;;;0.70;0.70;;;18.70;68.90;;;;;;5013360;28;20100;-64
2023/06/27 01:22:28;;;;;;;0.68;0.68;;;18.80;68.90;;;;;;5030614;28;20095;-64
2023/06/27 01:24:54;;;;;;;0.60;0.50;;;18.80;68.80;;;;;;5015124;28;20543;-64
2023/06/27 01:27:19;;;;;;;1.30;0.60;;;18.80;68.90;;;;;;4997213;28;20033;-63
2023/06/27 01:29:45;;;;;;;0.40;0.40;;;18.80;68.90;;;;;;5031137;28;20036;-64
2023/06/27 01:32:18;;;;;;;0.52;0.50;;;18.80;68.90;;;;;;5030038;28;20030;-64
2023/06/27 01:35:06;;;;;;;0.85;0.68;;;18.80;68.90;;;;;;5012650;28;20022;-63
2023/06/27 01:37:39;;;;;;;8.27;0.85;;;18.80;68.90;;;;;;5027930;28;20033;-63
2023/06/27 01:40:14;;;;;;;;;;;18.70;69.00;;;;;;5031763;28;20013;-64
2023/06/27 01:42:42;;;;;;;1.02;0.70;;;18.70;69.20;;;;;;5030800;28;19913;-64
2023/06/27 01:45:10;;;;;;;0.50;0.50;;;18.70;69.20;;;;;;5030904;28;20532;-63
2023/06/27 01:47:42;;;;;;;1.60;0.60;;;18.70;69.20;;;;;;5030219;28;20037;-64
2023/06/27 01:50:12;;;;;;;1.60;0.77;;;18.60;69.40;;;;;;5030489;28;20033;-64
2023/06/27 01:52:38;;;;;;;1.20;0.77;;;18.60;69.60;;;;;;5030269;28;20084;-63
2023/06/27 01:55:04;;;;;;;1.85;0.85;;;18.60;69.80;;;;;;5031388;28;20535;-64
2023/06/27 01:57:30;;;;;;;1.50;0.68;;;18.50;70.00;;;;;;5030471;28;20034;-64
2023/06/27 01:59:56;;;;;;;0.90;0.73;;;18.50;70.10;;;;;;5030360;28;20195;-64
2023/06/27 02:02:21;;;;;;;0.70;0.70;;;18.50;70.30;;;;;;5011737;28;20048;-64
2023/06/27 02:04:47;;;;;;;0.95;0.80;;;18.50;70.50;;;;;;5030583;28;20093;-64
2023/06/27 02:07:13;;;;;;;1.13;0.75;;;18.50;70.70;;;;;;5030200;28;20034;-64
2023/06/27 02:09:39;;;;;;;1.48;0.63;;;18.50;70.90;;;;;;5030309;28;20060;-64
2023/06/27 02:12:05;;;;;;;1.35;0.75;;;18.60;71.00;;;;;;5011900;28;20025;-63
2023/06/27 02:14:31;;;;;;;4.50;1.58;;;18.60;71.10;;;;;;5030579;28;20087;-63
2023/06/27 02:16:57;;;;;;;0.98;0.70;;;18.60;71.20;;;;;;5003736;28;20120;-65
2023/06/27 02:19:23;;;;;;;2.05;0.90;;;18.70;71.20;;;;;;5030692;28;20625;-65
2023/06/27 02:21:49;;;;;;;1.90;1.10;;;18.70;71.40;;;;;;5030288;28;20022;-65
2023/06/27 02:24:16;;;;;;;1.08;0.82;;;18.80;71.60;;;;;;5030532;28;20037;-65
2023/06/27 02:26:42;;;;;;;1.13;0.65;;;18.80;71.70;;;;;;5029279;28;20349;-65
2023/06/27 02:29:08;;;;;;;0.82;0.77;;;18.80;71.60;;;;;;5029652;28;20107;-65
2023/06/27 02:31:34;;;;;;;1.73;0.90;;;18.80;71.50;;;;;;5030382;28;20069;-65
2023/06/27 02:34:01;;;;;;;3.72;0.65;;;18.80;71.60;;;;;;5012493;28;20026;-65
2023/06/27 02:36:27;;;;;;;1.13;0.90;;;18.80;71.60;;;;;;5030221;28;20076;-65
2023/06/27 02:38:56;;;;;;;0.80;0.80;;;18.80;71.60;;;;;;5022920;28;20526;-65
2023/06/27 02:41:22;;;;;;;2.92;0.80;;;18.80;71.50;;;;;;5011834;28;20532;-65
2023/06/27 02:43:48;;;;;;;3.83;0.80;;;18.80;71.60;;;;;;5029832;28;20416;-63
2023/06/27 02:46:14;;;;;;;1.75;1.17;;;18.80;71.70;;;;;;5029590;28;20033;-63
2023/06/27 02:48:40;;;;;;;0.60;0.60;;;18.80;71.70;;;;;;5029574;28;20088;-63
2023/06/27 02:51:05;;;;;;;0.88;0.70;;;18.80;71.60;;;;;;5011603;28;20029;-63
2023/06/27 02:53:31;;;;;;;1.33;0.75;;;18.80;71.60;;;;;;5029852;28;20060;-63
2023/06/27 02:56:01;;;;;;;1.73;0.77;;;18.70;71.50;;;;;;5029772;28;20030;-63
2023/06/27 02:58:27;;;;;;;0.98;0.70;;;18.70;71.60;;;;;;5011966;28;20425;-63
2023/06/27 03:00:52;;;;;;;1.17;0.77;;;18.60;71.60;;;;;;5028716;28;20084;-62
2023/06/27 03:03:18;;;;;;;2.33;0.80;;;18.60;71.90;;;;;;5029331;28;20041;-62
2023/06/27 03:05:43;;;;;;;1.35;0.90;;;18.50;71.90;;;;;;5029874;28;20025;-62
2023/06/27 03:08:09;;;;;;;1.85;1.00;;;18.40;72.00;;;;;;5029143;28;20045;-62
2023/06/27 03:10:35;;;;;;;1.35;1.10;;;18.40;72.00;;;;;;5028944;28;20662;-62
2023/06/27 03:13:00;;;;;;;0.85;0.70;;;18.40;72.00;;;;;;5011771;28;20088;-62
2023/06/27 03:15:26;;;;;;;0.80;0.80;;;18.40;72.10;;;;;;5011183;28;20499;-62
2023/06/27 03:17:52;;;;;;;1.05;0.90;;;18.40;71.90;;;;;;5028598;28;20025;-62
2023/06/27 03:20:17;;;;;;;0.70;0.70;;;18.40;72.00;;;;;;5028765;28;20026;-62
2023/06/27 03:22:43;;;;;;;1.15;0.80;;;18.30;72.00;;;;;;5029313;28;20500;-62
2023/06/27 03:25:10;;;;;;;0.95;0.70;;;18.30;72.00;;;;;;5029177;28;20112;-62
2023/06/27 03:27:36;;;;;;;0.80;0.57;;;18.30;72.00;;;;;;5029423;28;20065;-62
2023/06/27 03:30:03;;;;;;;1.20;0.80;;;18.20;72.00;;;;;;5028881;28;20492;-62
2023/06/27 03:32:28;;;;;;;2.08;0.73;;;18.20;72.20;;;;;;5028476;28;20030;-62
2023/06/27 03:34:54;;;;;;;4.68;1.05;;;18.20;72.30;;;;;;5028851;28;20367;-63
2023/06/27 03:37:19;;;;;;;0.73;0.73;;;18.20;72.40;;;;;;5011544;28;20030;-62
2023/06/27 03:39:45;;;;;;;1.52;0.90;;;18.10;72.60;;;;;;5030605;28;20397;-62
2023/06/27 03:42:11;;;;;;;1.85;1.00;;;18.20;72.70;;;;;;5032967;28;20041;-62
2023/06/27 03:44:37;;;;;;;1.73;1.20;;;18.10;72.60;;;;;;5031967;28;20548;-62
2023/06/27 03:47:04;;;;;;;0.88;0.70;;;18.10;72.70;;;;;;5032581;28;20145;-62
2023/06/27 03:49:29;;;;;;;0.75;0.68;;;18.10;72.80;;;;;;5014747;28;20473;-62
2023/06/27 03:51:55;;;;;;;0.98;0.80;;;18.20;72.90;;;;;;5011583;28;20037;-62
2023/06/27 03:54:21;;;;;;;1.30;0.75;;;18.20;72.80;;;;;;5031678;28;20069;-62
2023/06/27 03:56:47;;;;;;;1.48;0.70;;;18.20;72.80;;;;;;5032974;28;20060;-62
2023/06/27 03:59:13;;;;;;;2.33;0.77;;;18.20;72.70;;;;;;5014919;28;20136;-62
2023/06/27 04:01:41;;;;;;;1.50;1.25;;;18.20;72.90;;;;;;5014001;28;20125;-62
2023/06/27 04:04:10;;;;;;;0.60;0.60;;;18.30;72.90;;;;;;5032432;28;20029;-64
2023/06/27 04:06:36;;;;;;;3.53;1.52;;;18.40;72.80;;;;;;5033134;28;20037;-62
2023/06/27 04:09:05;;;;;;;4.03;0.88;;;18.40;72.80;;;;;;5014797;28;20084;-62
2023/06/27 04:11:31;;;;;;;2.80;1.10;;;18.50;72.80;;;;;;5031980;28;20082;-64
2023/06/27 04:13:58;;;;;;;1.30;0.85;;;18.50;72.80;;;;;;5032585;28;20029;-64
2023/06/27 04:16:25;;;;;;;1.30;0.93;;;18.60;72.80;;;;;;4977314;28;20033;-64
2023/06/27 04:18:50;;;;;;;4.53;1.05;;;18.70;72.80;;;;;;5024189;28;20041;-64
2023/06/27 04:21:17;;;;;;;1.13;0.93;;;18.70;72.80;;;;;;5032561;28;20033;-64
2023/06/27 04:23:43;;;;;;;2.00;1.10;;;18.80;72.60;;;;;;5032965;28;20128;-64
2023/06/27 04:26:14;;;;;;;4.45;1.42;;;18.90;72.60;;;;;;5014799;28;20116;-65
2023/06/27 04:28:43;;;;;;;2.90;1.02;;;19.00;73.20;;;;;;5031827;28;20422;-65
2023/06/27 04:31:09;;;;;;;0.73;0.70;;;18.90;72.60;;;;;;5014656;28;20041;-65
2023/06/27 04:33:39;;;;;;;2.20;0.90;;;19.00;72.50;;;;;;5028808;28;20163;-65
2023/06/27 04:36:05;;;;;;;3.83;1.27;;;19.10;72.40;;;;;;5031794;28;20026;-65
2023/06/27 04:38:37;;;;;;;1.13;0.93;;;19.20;72.30;;;;;;5032272;28;20048;-63
2023/06/27 04:41:04;;;;;;;1.17;1.08;;;19.30;72.40;;;;;;5031675;28;20044;-62
2023/06/27 04:43:32;;;;;;;1.80;0.90;;;19.40;72.20;;;;;;5032180;28;20061;-63
2023/06/27 04:46:01;;;;;;;0.52;0.40;;;19.50;72.00;;;;;;5031845;28;20034;-64
2023/06/27 04:48:27;;;;;;;3.25;1.33;;;19.60;72.00;;;;;;5031803;28;20041;-64
2023/06/27 04:50:54;;;;;;;2.47;1.00;;;19.60;71.90;;;;;;5031009;28;20083;-64
2023/06/27 04:53:23;;;;;;;2.35;1.10;;;19.60;71.90;;;;;;5032391;28;20033;-64
2023/06/27 04:55:50;;;;;;;7.82;1.58;;;19.50;72.30;;;;;;5032201;28;20029;-64
2023/06/27 04:58:16;;;;;;;2.90;1.00;;;19.50;72.40;;;;;;5032157;28;20028;-64
2023/06/27 05:00:43;;;;;;;1.95;1.00;;;19.50;72.40;;;;;;5031343;28;20041;-64
2023/06/27 05:03:08;;;;;;;2.40;1.40;;;19.40;72.40;;;;;;5030739;28;20463;-64
2023/06/27 05:05:34;;;;;;;1.88;1.27;;;19.40;72.50;;;;;;5031930;28;20041;-64
2023/06/27 05:08:04;;;;;;;1.48;1.38;;;19.40;72.70;;;;;;5031694;28;20055;-64
2023/06/27 05:10:31;;;;;;;1.52;1.00;;;19.40;72.60;;;;;;4997740;28;20033;-64
2023/06/27 05:12:57;;;;;;;2.38;1.10;;;19.40;72.60;;;;;;5032073;28;20393;-64
2023/06/27 05:15:23;;;;;;;1.10;0.90;;;19.30;72.50;;;;;;5031225;28;20025;-64
2023/06/27 05:18:07;;;;;;;4.53;1.67;;;19.30;72.60;;;;;;5031334;28;20540;-64
2023/06/27 05:20:34;;;;;;;1.67;1.50;;;19.30;72.70;;;;;;5029032;28;20477;-64
2023/06/27 05:23:01;;;;;;;1.60;0.95;;;19.40;72.80;;;;;;5031555;28;20041;-64
2023/06/27 05:25:27;;;;;;;0.90;0.88;;;19.40;72.80;;;;;;5008349;28;20416;-64
2023/06/27 05:27:52;;;;;;;2.92;1.10;;;19.40;72.70;;;;;;5031042;28;20029;-64
2023/06/27 05:30:18;;;;;;;2.45;1.20;;;19.40;72.60;;;;;;5021074;28;20028;-63
2023/06/27 05:32:44;;;;;;;2.05;1.15;;;19.40;72.60;;;;;;5030560;28;20558;-63
2023/06/27 05:35:10;;;;;;;3.97;1.08;;;19.40;72.60;;;;;;5031116;28;20037;-63
2023/06/27 05:37:35;;;;;;;1.58;1.00;;;19.40;72.70;;;;;;5030684;28;20075;-64
2023/06/27 05:40:01;;;;;;;4.60;0.80;;;19.40;72.70;;;;;;5013415;28;20033;-64
2023/06/27 05:42:26;;;;;;;2.92;1.00;;;19.40;72.70;;;;;;5030769;28;20048;-64
2023/06/27 05:44:52;;;;;;;2.80;0.90;;;19.50;72.60;;;;;;5031146;28;20044;-62
2023/06/27 05:47:18;;;;;;;3.53;1.35;;;19.50;72.60;;;;;;5030098;28;20041;-62
2023/06/27 05:49:43;;;;;;;2.20;1.40;;;19.50;72.70;;;;;;5030359;28;20397;-63
2023/06/27 05:52:09;;;;;;;3.67;1.10;;;19.60;72.70;;;;;;5007160;28;20103;-63
2023/06/27 05:54:35;;;;;;;2.05;1.10;;;19.60;72.70;;;;;;5030912;28;20033;-63
2023/06/27 05:57:00;;;;;;;2.05;1.38;;;19.60;72.70;;;;;;5030435;28;20030;-62
2023/06/27 05:59:26;;;;;;;1.63;0.85;;;19.60;72.60;;;;;;5030160;28;20500;-63
2023/06/27 06:01:51;;;;;;;1.38;1.02;;;19.70;72.60;;;;;;5029474;28;20026;-63
2023/06/27 06:04:17;;;;;;;2.97;1.10;;;19.70;72.50;;;;;;5012564;28;20029;-63
2023/06/27 06:06:43;;;;;;;2.17;1.10;;;19.80;72.50;;;;;;5030616;28;20029;-63
2023/06/27 06:09:08;;;;;;;1.98;0.95;;;19.80;72.40;;;;;;5027713;28;20068;-63
2023/06/27 06:11:34;;;;;;;1.45;1.10;;;19.80;72.30;;;;;;5030042;28;20086;-63
2023/06/27 06:14:03;;;;;;;1.98;1.27;;;19.80;72.30;;;;;;5030346;28;20064;-63
2023/06/27 06:16:34;;;;;;;1.45;0.90;;;19.80;72.20;;;;;;5030344;28;20072;-63
2023/06/27 06:19:00;;;;;;;1.17;1.08;;;19.80;72.30;;;;;;5012069;28;20014;-63
2023/06/27 06:21:30;;;;;;;2.38;0.90;;;19.90;72.30;;;;;;5029652;28;20472;-63
2023/06/27 06:23:56;;;;;;;1.00;0.63;;;19.90;72.30;;;;;;5012528;28;20044;-64
2023/06/27 06:26:22;;;;;;;1.92;1.10;;;20.00;72.20;;;;;;5012775;28;20083;-64
2023/06/27 06:28:47;;;;;;;3.10;1.70;;;20.00;72.00;;;;;;5027432;28;20025;-65
2023/06/27 06:31:18;;;;;;;2.13;1.38;;;20.10;71.80;;;;;;5029691;28;20090;-64
2023/06/27 06:33:44;;;;;;;3.83;1.10;;;20.10;71.80;;;;;;5029422;28;20053;-63
2023/06/27 06:36:10;;;;;;;2.95;1.00;;;20.10;71.70;;;;;;5029959;28;20409;-63
2023/06/27 06:38:36;;;;;;;1.98;1.50;;;20.20;71.60;;;;;;5012199;28;20709;-64
2023/06/27 06:41:02;;;;;;;3.03;1.00;;;20.30;71.40;;;;;;5029846;28;20030;-64
2023/06/27 06:43:28;;;;;;;4.30;1.60;;;20.30;71.20;;;;;;5029805;28;20030;-64
2023/06/27 06:45:54;;;;;;;2.63;1.30;;;20.40;71.00;;;;;;5030117;28;20726;-65
2023/06/27 06:48:20;;;;;;;2.63;1.50;;;20.60;70.60;;;;;;5029810;28;20113;-64
2023/06/27 06:50:46;;;;;;;2.40;0.93;;;20.70;70.20;;;;;;5029347;28;20559;-65
2023/06/27 06:53:12;;;;;;;1.67;0.85;;;20.80;69.70;;;;;;5029739;28;20060;-65
2023/06/27 06:55:38;;;;;;;1.38;0.93;;;20.90;68.90;;;;;;5011978;28;20123;-64
2023/06/27 06:58:04;;;;;;;1.42;0.98;;;21.00;68.80;;;;;;5030060;28;20029;-64
2023/06/27 07:00:30;;;;;;;1.35;1.10;;;21.10;68.40;;;;;;5029154;28;20041;-64
2023/06/27 07:02:56;;;;;;;1.23;0.73;;;21.20;68.10;;;;;;5029548;28;20035;-64
2023/06/27 07:05:22;;;;;;;2.83;1.02;;;21.30;67.90;;;;;;5029817;28;20029;-65
2023/06/27 07:07:48;;;;;;;2.03;1.05;;;21.40;67.10;;;;;;5012156;28;20025;-65
2023/06/27 07:10:13;;;;;;;8.00;1.48;;;21.40;65.90;;;;;;5029125;28;20037;-64
2023/06/27 07:12:40;;;;;;;0.75;0.50;;;21.50;65.70;;;;;;5029925;28;20049;-63
2023/06/27 07:15:06;;;;;;;0.93;0.70;;;21.60;65.40;;;;;;5028584;28;20476;-63
2023/06/27 07:17:32;;;;;;;1.95;1.25;;;21.60;65.00;;;;;;5027271;28;20029;-63
2023/06/27 07:19:58;;;;;;;1.27;0.93;;;21.70;65.00;;;;;;5028702;28;20479;-63
2023/06/27 07:22:25;;;;;;;2.47;0.93;;;21.80;64.70;;;;;;5029622;28;20447;-65
2023/06/27 07:24:50;;;;;;;1.17;0.80;;;21.80;64.50;;;;;;5029482;28;20045;-64
2023/06/27 07:27:16;;;;;;;1.15;0.90;;;21.90;64.40;;;;;;5029329;28;20041;-65
2023/06/27 07:29:42;;;;;;;1.02;0.65;;;22.00;63.70;;;;;;5011431;28;20037;-65
2023/06/27 07:32:09;;;;;;;1.52;1.13;;;22.10;63.40;;;;;;5028829;28;20045;-63
2023/06/27 07:34:35;;;;;;;1.83;0.77;;;22.10;63.10;;;;;;5028986;28;20025;-63
2023/06/27 07:37:01;;;;;;;3.13;0.90;;;22.20;62.90;;;;;;5029251;28;20120;-63
2023/06/27 07:39:26;;;;;;;0.80;0.80;;;22.30;62.50;;;;;;5011575;28;20055;-63
2023/06/27 07:41:52;;;;;;;1.88;0.55;;;22.40;62.20;;;;;;5021133;28;20037;-63
2023/06/27 07:44:17;;;;;;;4.15;1.00;;;22.40;62.00;;;;;;5029106;28;20033;-64
2023/06/27 07:46:43;;;;;;;1.17;0.77;;;22.60;61.80;;;;;;5026973;28;20098;-65
2023/06/27 07:49:09;;;;;;;6.30;0.60;;;22.70;61.40;;;;;;5011260;28;20069;-64
2023/06/27 07:51:34;;;;;;;0.73;0.60;;;22.80;61.30;;;;;;5025663;28;20040;-65
2023/06/27 07:54:02;;;;;;;0.70;0.50;;;23.00;61.30;;;;;;5029127;28;20037;-64
2023/06/27 07:56:28;;;;;;;0.80;0.52;;;23.00;60.10;;;;;;5029390;28;20369;-64
2023/06/27 07:58:54;;;;;;;1.08;0.75;;;22.90;58.70;;;;;;5011369;28;20087;-64
2023/06/27 08:01:20;;;;;;;0.60;0.60;;;22.80;58.70;;;;;;5028590;28;20061;-64
2023/06/27 08:03:46;;;;;;;1.60;0.50;;;22.80;58.80;;;;;;5028841;28;20037;-65
2023/06/27 08:06:11;;;;;;;1.50;1.10;;;22.80;58.20;;;;;;5011463;28;20029;-66
2023/06/27 08:08:37;;;;;;;1.45;0.32;;;22.80;57.80;;;;;;5029013;28;20025;-65
2023/06/27 08:11:04;;;;;;;2.20;0.80;;;22.90;58.20;;;;;;5011373;28;20512;-65
2023/06/27 08:13:29;;;;;;;0.65;0.65;;;23.10;57.90;;;;;;5029344;28;20036;-65
2023/06/27 08:15:55;;;;;;;1.30;0.55;;;23.10;56.70;;;;;;5011434;28;20511;-65
2023/06/27 08:18:21;;;;;;;0.85;0.40;;;23.00;54.70;;;;;;5028309;28;20025;-65
2023/06/27 08:20:46;;;;;;;1.73;0.80;;;23.00;55.30;;;;;;5028976;28;20026;-65
2023/06/27 08:23:12;;;;;;;4.88;0.80;;;23.10;55.10;;;;;;5009266;28;20532;-65
2023/06/27 08:25:38;;;;;;;0.38;0.38;;;23.20;55.20;;;;;;5029948;28;20033;-65
2023/06/27 08:28:03;;;;;;;0.90;0.77;;;23.40;55.20;;;;;;5014924;28;20037;-65
2023/06/27 08:30:31;;;;;;;1.08;0.43;;;23.60;55.00;;;;;;5014142;28;20029;-64
2023/06/27 08:32:56;;;;;;;1.15;0.52;;;23.60;54.30;;;;;;5030696;28;20148;-64
2023/06/27 08:35:22;;;;;;;0.90;0.43;;;23.60;54.30;;;;;;5032274;28;20037;-64
2023/06/27 08:37:48;;;;;;;0.30;0.30;;;23.60;54.20;;;;;;5031992;28;20029;-64
2023/06/27 08:40:24;;;;;;;0.40;0.40;;;23.60;54.60;;;;;;5031637;28;20116;-64
2023/06/27 08:42:50;;;;;;;1.55;0.60;;;23.60;54.10;;;;;;5031975;28;20037;-63
2023/06/27 08:45:16;;;;;;;1.90;0.70;;;23.70;54.10;;;;;;5032475;28;20052;-65
2023/06/27 08:47:44;;;;;;;2.22;0.55;;;23.80;53.20;;;;;;5031619;28;20037;-66
2023/06/27 08:50:13;;;;;;;0.57;0.40;;;23.90;53.10;;;;;;5032109;28;20030;-65
2023/06/27 08:52:44;;;;;;;0.70;0.70;;;23.80;52.90;;;;;;5031950;28;20025;-65
2023/06/27 08:55:29;;;;;;;0.73;0.73;;;23.80;52.30;;;;;;5024660;28;20029;-66
2023/06/27 08:57:57;;;;;;;0.93;0.80;;;23.80;52.40;;;;;;5031061;28;20025;-65
2023/06/27 09:00:26;;;;;;;1.00;0.55;;;23.80;52.70;;;;;;5013472;28;20424;-66
2023/06/27 09:02:53;;;;;;;3.20;0.47;;;23.80;52.70;;;;;;5029032;28;20021;-65
2023/06/27 09:05:19;;;;;;;1.10;0.60;;;23.80;52.80;;;;;;5030310;28;20133;-65
2023/06/27 09:07:44;;;;;;;1.83;0.52;;;23.80;53.00;;;;;;5030844;28;20105;-65
2023/06/27 09:10:10;;;;;;;3.03;0.65;;;23.90;53.20;;;;;;5030998;28;20460;-64
2023/06/27 09:12:40;;;;;;;0.30;0.30;;;24.00;53.20;;;;;;5030274;28;20058;-64
2023/06/27 09:15:07;;;;;;;0.95;0.80;;;24.00;53.20;;;;;;5031270;28;20352;-64
2023/06/27 09:17:32;;;;;;;1.23;0.73;;;23.90;52.30;;;;;;5031410;28;20021;-65
2023/06/27 09:19:58;;;;;;;1.35;0.70;;;23.80;52.70;;;;;;5027845;28;20041;-64
2023/06/27 09:22:24;;;;;;;2.05;0.85;;;23.80;52.90;;;;;;5021513;28;20081;-64
2023/06/27 09:24:49;;;;;;;1.65;0.57;;;23.70;53.20;;;;;;5031681;28;20422;-64
2023/06/27 09:27:31;;;;;;;0.57;0.55;;;23.50;53.40;;;;;;5028614;28;20108;-64
2023/06/27 09:30:03;;;;;;;0.43;0.43;;;23.40;53.60;;;;;;5029670;28;20025;-63
2023/06/27 09:32:29;;;;;;;4.72;0.88;;;23.30;53.90;;;;;;5012177;28;20116;-68
2023/06/27 09:34:55;;;;;;;0.70;0.40;;;23.20;53.90;;;;;;5030390;28;20120;-67
2023/06/27 09:37:28;;;;;;;0.50;0.50;;;23.20;53.90;;;;;;5030651;28;20026;-67
2023/06/27 09:39:54;;;;;;;0.40;0.40;;;23.10;53.90;;;;;;5021929;28;20087;-67
2023/06/27 09:42:20;;;;;;;0.65;0.50;;;23.10;53.50;;;;;;5025032;28;20029;-67
2023/06/27 09:44:45;;;;;;;0.82;0.55;;;23.00;52.70;;;;;;5026753;28;20371;-68
2023/06/27 09:47:11;;;;;;;0.52;0.40;;;23.00;52.70;;;;;;5027167;28;20065;-67
2023/06/27 09:49:41;;;;;;;1.00;0.52;;;23.00;52.70;;;;;;5030239;28;20080;-67
2023/06/27 09:52:10;;;;;;;1.10;0.95;;;23.00;52.90;;;;;;5029513;28;20120;-67
2023/06/27 09:54:42;;;;;;;2.38;0.55;;;23.10;52.70;;;;;;5030710;28;20103;-63
2023/06/27 09:57:16;;;;;;;1.48;0.40;;;23.10;51.70;;;;;;5022183;28;20483;-62
2023/06/27 09:59:42;;;;;;;1.02;0.93;;;23.10;51.60;;;;;;5030334;28;20049;-62
2023/06/27 10:02:14;;;;;;;1.90;0.50;;;23.10;52.00;;;;;;5026414;28;20035;-62
2023/06/27 10:04:40;;;;;;;2.95;0.50;;;23.10;52.00;;;;;;5031104;28;20060;-62
2023/06/27 10:07:08;;;;;;;1.00;0.50;;;23.20;52.00;;;;;;5026477;28;20413;-62
2023/06/27 10:09:37;;;;;;;1.05;0.55;;;23.30;52.10;;;;;;5029888;28;20096;-63
2023/06/27 10:12:05;;;;;;;0.43;0.40;;;23.30;51.80;;;;;;5029695;28;20536;-62
2023/06/27 10:14:32;;;;;;;2.08;0.50;;;23.40;51.30;;;;;;5010907;28;20026;-63
2023/06/27 10:16:59;;;;;;;1.27;0.93;;;23.40;51.40;;;;;;5028991;28;20045;-62
2023/06/27 10:19:25;;;;;;;0.40;0.40;;;23.60;51.20;;;;;;5026847;28;20064;-63
2023/06/27 10:21:50;;;;;;;1.30;1.00;;;23.80;50.80;;;;;;5028515;28;20389;-62
2023/06/27 10:24:17;;;;;;;0.52;0.52;;;24.00;50.30;;;;;;5028894;28;20038;-62
2023/06/27 10:26:50;;;;;;;0.30;0.30;;;24.10;48.90;;;;;;5028468;28;20100;-66
2023/06/27 10:29:16;;;;;;;0.82;0.70;;;24.20;46.60;;;;;;5028490;28;20407;-66
2023/06/27 10:31:47;;;;;;;0.38;0.38;;;24.20;46.60;;;;;;5009867;28;20033;-66
2023/06/27 10:34:18;;;;;;;0.63;0.53;;;24.20;47.10;;;;;;5025991;28;20543;-66
2023/06/27 10:37:05;;;;;;;0.35;0.35;;;24.30;47.40;;;;;;5010694;28;20102;-66
2023/06/27 10:39:32;;;;;;;3.45;0.57;;;24.50;47.50;;;;;;5026809;28;20033;-66
2023/06/27 10:42:15;;;;;;;2.50;0.80;;;24.70;46.80;;;;;;5028934;28;20026;-67
2023/06/27 10:45:10;;;;;;;0.70;0.40;;;24.80;46.70;;;;;;5026935;28;20033;-66
2023/06/27 10:47:41;;;;;;;0.73;0.50;;;24.70;46.30;;;;;;5014905;28;20046;-66
2023/06/27 10:50:15;;;;;;;0.43;0.43;;;24.70;46.70;;;;;;5027601;28;20128;-66
2023/06/27 10:53:05;;;;;;;1.70;0.52;;;24.80;46.90;;;;;;5027676;28;20033;-66
2023/06/27 10:55:32;;;;;;;0.85;0.50;;;24.90;45.90;;;;;;5008772;28;20056;-62
2023/06/27 10:58:09;;;;;;;0.40;0.30;;;25.00;46.10;;;;;;5027583;28;20053;-62
2023/06/27 11:00:40;;;;;;;0.30;0.30;;;24.90;46.10;;;;;;5025313;28;20041;-62
2023/06/27 11:03:08;;;;;;;0.47;0.47;;;24.70;46.40;;;;;;5028372;28;20040;-63
2023/06/27 11:05:42;;;;;;;1.65;0.80;;;24.70;46.70;;;;;;5028040;28;20373;-66
2023/06/27 11:08:17;;;;;;;0.52;0.50;;;24.70;46.10;;;;;;5027556;28;20033;-66
2023/06/27 11:10:50;;;;;;;1.10;0.57;;;24.70;45.70;;;;;;5026457;28;20075;-67
2023/06/27 11:13:21;;;;;;;0.52;0.30;;;24.60;46.10;;;;;;5027591;28;20353;-63
2023/06/27 11:15:48;;;;;;;1.07;0.53;;;24.70;46.30;;;;;;5025597;28;20381;-63
2023/06/27 11:18:17;;;;;;;1.15;0.43;;;24.70;46.20;;;;;;5009187;28;20288;-63
2023/06/27 11:20:44;;;;;;;0.77;0.70;;;24.80;45.90;;;;;;5025905;28;20022;-63
2023/06/27 11:23:11;;;;;;;0.63;0.30;;;24.90;46.30;;;;;;5029295;28;20091;-63
2023/06/27 11:25:38;;;;;;;0.40;0.40;;;24.90;46.30;;;;;;5008311;28;20034;-63
2023/06/27 11:28:05;;;;;;;0.30;0.30;;;24.90;46.10;;;;;;5027690;28;20041;-63
2023/06/27 11:30:33;;;;;;;0.30;0.30;;;25.00;46.10;;;;;;4994743;28;20368;-63
2023/06/27 11:32:59;;;;;;;0.30;0.30;;;25.10;45.80;;;;;;5011151;28;20412;-66
2023/06/27 11:35:25;;;;;;;1.25;0.50;;;25.10;45.20;;;;;;5026270;28;20041;-62
2023/06/27 11:37:54;;;;;;;0.45;0.43;;;25.30;44.80;;;;;;5028874;28;20112;-63
2023/06/27 11:40:24;;;;;;;1.92;0.40;;;25.40;44.30;;;;;;5011119;28;20475;-66
2023/06/27 11:42:50;;;;;;;0.30;0.30;;;25.60;44.20;;;;;;5029074;28;20109;-63
2023/06/27 11:45:16;;;;;;;2.00;0.55;;;25.80;43.90;;;;;;5029493;28;20445;-62
2023/06/27 11:47:45;;;;;;;0.28;0.28;;;26.00;43.90;;;;;;5028582;28;20071;-66
2023/06/27 11:50:12;;;;;;;3.03;0.65;;;26.10;43.50;;;;;;5028906;28;20033;-66
2023/06/27 11:52:38;;;;;;;1.13;0.30;;;26.20;43.10;;;;;;5026871;28;20465;-66
2023/06/27 11:55:05;;;;;;;0.65;0.60;;;26.30;43.10;;;;;;5025637;28;20025;-66
2023/06/27 11:57:46;;;;;;;0.82;0.60;;;26.40;42.60;;;;;;5025814;28;20037;-67
2023/06/27 12:00:22;;;;;;;0.55;0.55;;;26.40;42.20;;;;;;5025714;28;20037;-66
2023/06/27 12:02:56;;;;;;;1.45;0.35;;;26.20;41.90;;;;;;5026122;28;20045;-64
2023/06/27 12:05:24;;;;;;;0.65;0.32;;;26.10;41.20;;;;;;5032393;28;20083;-63
2023/06/27 12:07:55;;;;;;;1.10;0.47;;;26.00;41.20;;;;;;5031570;28;20040;-63
2023/06/27 12:10:21;;;;;;;0.28;0.28;;;26.00;41.60;;;;;;5031345;28;20405;-63
2023/06/27 12:12:50;;;;;;;0.30;0.30;;;26.10;41.10;;;;;;5032461;28;20061;-63
2023/06/27 12:15:15;;;;;;;0.70;0.43;;;26.00;41.50;;;;;;5031953;28;20029;-63
2023/06/27 12:17:55;;;;;;;0.35;0.35;;;25.70;42.00;;;;;;5027272;28;20048;-64
2023/06/27 12:20:22;;;;;;;0.60;0.60;;;25.70;42.40;;;;;;5031736;28;20060;-61
2023/06/27 12:22:47;;;;;;;1.15;0.52;;;25.60;42.20;;;;;;5028705;28;20110;-62
2023/06/27 12:25:13;;;;;;;0.22;0.22;;;25.30;42.30;;;;;;5030212;28;20121;-61
2023/06/27 12:27:39;;;;;;;0.45;0.45;;;25.10;43.00;;;;;;5031727;28;20064;-62
2023/06/27 12:30:07;;;;;;;1.88;0.65;;;25.20;43.40;;;;;;5031431;28;20429;-62
2023/06/27 12:32:33;;;;;;;0.90;0.50;;;25.30;43.50;;;;;;5012997;28;20486;-61
2023/06/27 12:34:58;;;;;;;1.05;0.68;;;25.50;43.10;;;;;;5031469;28;20040;-61
2023/06/27 12:37:24;;;;;;;0.65;0.65;;;25.60;42.90;;;;;;5031657;28;20035;-62
2023/06/27 12:39:49;;;;;;;0.43;0.40;;;25.70;42.10;;;;;;5030245;28;20024;-60
2023/06/27 12:42:15;;;;;;;1.00;0.60;;;25.60;42.10;;;;;;5030427;28;20064;-61
2023/06/27 12:44:44;;;;;;;0.40;0.40;;;25.50;42.60;;;;;;5012063;28;20033;-61
2023/06/27 12:47:10;;;;;;;0.22;0.22;;;25.40;42.80;;;;;;5009794;28;20057;-61
2023/06/27 12:49:35;;;;;;;0.55;0.45;;;25.30;43.40;;;;;;5029894;28;20448;-62